createdAt,value
2023-08-15T00:00:43.436Z,2.88
2023-08-15T00:03:07.633Z,4.45
2023-08-15T00:05:32.518Z,6.22
2023-08-15T00:07:58.893Z,6.10
2023-08-15T00:10:22.486Z,10.20
2023-08-15T00:12:46.091Z,6.57
2023-08-15T00:15:12.758Z,4.15
2023-08-15T00:17:36.430Z,8.15
2023-08-15T00:20:00.052Z,5.43
2023-08-15T00:22:23.764Z,5.85
2023-08-15T00:24:47.344Z,11.05
2023-08-15T00:27:11.141Z,6.55
2023-08-15T00:29:34.798Z,5.70
2023-08-15T00:31:59.883Z,7.50
2023-08-15T00:34:23.554Z,8.93
2023-08-15T00:36:47.317Z,6.15
2023-08-15T00:39:10.948Z,5.53
2023-08-15T00:41:34.696Z,5.90
2023-08-15T00:43:59.763Z,5.60
2023-08-15T00:46:24.395Z,5.20
2023-08-15T00:48:49.436Z,5.38
2023-08-15T00:51:14.241Z,6.70
2023-08-15T00:53:38.370Z,9.80
2023-08-15T00:56:02.612Z,7.25
2023-08-15T00:58:26.926Z,3.70
2023-08-15T01:00:51.514Z,3.45
2023-08-15T01:03:15.338Z,3.60
2023-08-15T01:05:41.784Z,4.50
2023-08-15T01:08:06.185Z,5.50
2023-08-15T01:10:29.865Z,3.58
2023-08-15T01:13:02.039Z,4.57
2023-08-15T01:15:28.814Z,6.28
2023-08-15T01:18:06.916Z,2.67
2023-08-15T01:20:35.422Z,3.83
2023-08-15T01:23:03.729Z,4.22
2023-08-15T01:25:29.937Z,5.45
2023-08-15T01:27:53.642Z,5.50
2023-08-15T01:30:19.871Z,2.65
2023-08-15T01:32:52.072Z,4.30
2023-08-15T01:35:40.361Z,4.90
2023-08-15T01:38:12.089Z,4.93
2023-08-15T01:40:40.016Z,6.78
2023-08-15T01:43:05.524Z,3.63
2023-08-15T01:45:30.196Z,4.78
2023-08-15T01:47:54.277Z,2.22
2023-08-15T01:50:18.176Z,3.70
2023-08-15T01:52:41.887Z,3.88
2023-08-15T01:55:06.348Z,2.45
2023-08-15T01:57:31.378Z,2.45
2023-08-15T01:59:55.066Z,3.25
2023-08-15T02:02:18.746Z,2.70
2023-08-15T02:04:42.444Z,2.38
2023-08-15T02:07:06.109Z,2.50
2023-08-15T02:09:29.845Z,2.28
2023-08-15T02:11:53.941Z,4.82
2023-08-15T02:14:19.046Z,4.78
2023-08-15T02:16:42.751Z,3.05
2023-08-15T02:19:06.628Z,4.20
2023-08-15T02:21:30.240Z,3.55
2023-08-15T02:23:54.053Z,3.38
2023-08-15T02:26:17.948Z,3.53
2023-08-15T02:28:42.265Z,3.35
2023-08-15T02:31:07.323Z,3.05
2023-08-15T02:33:31.049Z,3.40
2023-08-15T02:35:55.755Z,3.95
2023-08-15T02:38:21.177Z,2.75
2023-08-15T02:40:44.945Z,3.13
2023-08-15T02:43:09.014Z,2.83
2023-08-15T02:45:33.304Z,3.42
2023-08-15T02:48:00.168Z,3.83
2023-08-15T02:50:23.846Z,3.65
2023-08-15T02:52:47.587Z,2.63
2023-08-15T02:55:11.394Z,3.90
2023-08-15T02:57:35.440Z,3.10
2023-08-15T02:59:59.180Z,3.00
2023-08-15T03:02:23.768Z,2.45
2023-08-15T03:04:48.815Z,3.63
2023-08-15T03:07:12.562Z,5.25
2023-08-15T03:09:36.199Z,3.15
2023-08-15T03:12:00.619Z,3.58
2023-08-15T03:14:24.306Z,3.92
2023-08-15T03:16:48.069Z,5.13
2023-08-15T03:19:11.802Z,3.55
2023-08-15T03:21:37.260Z,3.13
2023-08-15T03:24:01.006Z,2.75
2023-08-15T03:26:27.102Z,4.10
2023-08-15T03:28:53.432Z,3.97
2023-08-15T03:31:18.061Z,4.03
2023-08-15T03:33:47.088Z,3.97
2023-08-15T03:36:10.976Z,4.82
2023-08-15T03:38:36.617Z,4.55
2023-08-15T03:41:05.231Z,3.20
2023-08-15T03:43:30.006Z,4.82
2023-08-15T03:45:53.908Z,4.35
2023-08-15T03:48:17.583Z,4.35
2023-08-15T03:50:41.856Z,5.00
2023-08-15T03:53:06.667Z,3.97
2023-08-15T03:55:34.264Z,3.72
2023-08-15T03:57:58.254Z,4.55
2023-08-15T04:00:22.501Z,4.88
2023-08-15T04:02:46.244Z,3.03
2023-08-15T04:05:10.198Z,4.78
2023-08-15T04:07:33.819Z,5.18
2023-08-15T04:09:57.651Z,4.40
2023-08-15T04:12:22.698Z,3.38
2023-08-15T04:14:47.116Z,5.78
2023-08-15T04:17:10.894Z,4.22
2023-08-15T04:19:34.635Z,5.00
2023-08-15T04:21:58.619Z,4.78
2023-08-15T04:24:22.890Z,4.45
2023-08-15T04:26:46.547Z,4.22
2023-08-15T04:29:12.211Z,4.72
2023-08-15T04:31:35.908Z,4.00
2023-08-15T04:34:01.516Z,4.90
2023-08-15T04:36:25.245Z,5.70
2023-08-15T04:38:49.090Z,3.97
2023-08-15T04:41:13.375Z,5.20
2023-08-15T04:43:37.179Z,4.47
2023-08-15T04:46:02.988Z,4.82
2023-08-15T04:48:26.986Z,4.78
2023-08-15T04:50:51.689Z,5.65
2023-08-15T04:53:15.424Z,5.63
2023-08-15T04:55:39.090Z,5.63
2023-08-15T04:58:03.685Z,5.03
2023-08-15T05:00:27.441Z,5.90
2023-08-15T05:02:52.608Z,5.82
2023-08-15T05:05:17.143Z,6.78
2023-08-15T05:07:41.850Z,5.47
2023-08-15T05:10:07.832Z,7.13
2023-08-15T05:12:32.914Z,7.25
2023-08-15T05:14:56.743Z,6.32
2023-08-15T05:17:20.825Z,7.47
2023-08-15T05:19:46.435Z,7.13
2023-08-15T05:22:10.531Z,6.53
2023-08-15T05:24:34.174Z,5.68
2023-08-15T05:26:57.955Z,4.72
2023-08-15T05:29:21.796Z,5.55
2023-08-15T05:31:45.562Z,5.30
2023-08-15T05:34:11.410Z,6.38
2023-08-15T05:36:36.707Z,6.20
2023-08-15T05:39:05.381Z,5.35
2023-08-15T05:41:30.764Z,7.57
2023-08-15T05:43:54.472Z,5.78
2023-08-15T05:46:18.211Z,5.25
2023-08-15T05:48:42.261Z,4.78
2023-08-15T05:51:06.039Z,7.07
2023-08-15T05:53:31.060Z,5.95
2023-08-15T05:55:54.896Z,5.72
2023-08-15T05:58:18.768Z,7.60
2023-08-15T06:00:43.442Z,4.82
2023-08-15T06:03:07.899Z,5.82
2023-08-15T06:05:32.827Z,6.63
2023-08-15T06:07:56.634Z,4.70
2023-08-15T06:10:21.815Z,5.93
2023-08-15T06:12:45.420Z,38.08
2023-08-15T06:15:09.923Z,3.83
2023-08-15T06:17:33.637Z,4.45
2023-08-15T06:19:57.529Z,6.10
2023-08-15T06:22:21.229Z,4.20
2023-08-15T06:24:45.046Z,5.63
2023-08-15T06:27:10.355Z,5.50
2023-08-15T06:29:34.241Z,5.30
2023-08-15T06:32:00.682Z,4.80
2023-08-15T06:34:24.335Z,3.22
2023-08-15T06:36:48.229Z,3.22
2023-08-15T06:39:12.867Z,3.58
2023-08-15T06:41:36.669Z,3.83
2023-08-15T06:44:02.400Z,3.90
2023-08-15T06:46:26.123Z,2.50
2023-08-15T06:48:50.036Z,3.25
2023-08-15T06:51:13.662Z,3.15
2023-08-15T06:53:37.306Z,4.68
2023-08-15T06:56:01.152Z,4.70
2023-08-15T06:58:24.838Z,3.50
2023-08-15T07:00:49.908Z,6.38
2023-08-15T07:03:14.736Z,3.97
2023-08-15T07:05:38.432Z,4.38
2023-08-15T07:08:04.470Z,4.65
2023-08-15T07:10:28.298Z,3.50
2023-08-15T07:12:52.013Z,3.97
2023-08-15T07:15:15.695Z,3.83
2023-08-15T07:17:41.618Z,3.90
2023-08-15T07:20:07.081Z,4.53
2023-08-15T07:22:30.719Z,4.50
2023-08-15T07:24:54.436Z,4.13
2023-08-15T07:27:18.236Z,4.95
2023-08-15T07:29:41.903Z,5.32
2023-08-15T07:32:07.421Z,5.25
2023-08-15T07:34:32.589Z,3.17
2023-08-15T07:36:56.482Z,4.32
2023-08-15T07:39:20.179Z,3.78
2023-08-15T07:41:44.550Z,5.97
2023-08-15T07:44:08.615Z,3.83
2023-08-15T07:46:32.368Z,4.80
2023-08-15T07:48:58.204Z,6.72
2023-08-15T07:51:23.583Z,5.53
2023-08-15T07:53:47.227Z,4.63
2023-08-15T07:56:10.922Z,4.03
2023-08-15T07:58:36.635Z,3.47
2023-08-15T08:01:00.354Z,4.15
2023-08-15T08:03:24.003Z,4.15
2023-08-15T08:05:50.009Z,4.10
2023-08-15T08:08:15.220Z,4.10
2023-08-15T08:10:39.002Z,6.15
2023-08-15T08:13:02.713Z,6.00
2023-08-15T08:15:26.531Z,5.43
2023-08-15T08:17:50.391Z,4.72
2023-08-15T08:20:14.569Z,7.43
2023-08-15T08:22:38.214Z,4.65
2023-08-15T08:25:18.501Z,3.70
2023-08-15T08:27:42.224Z,4.53
2023-08-15T08:30:07.698Z,3.63
2023-08-15T08:32:31.407Z,4.13
2023-08-15T08:34:55.022Z,4.35
2023-08-15T08:37:18.700Z,3.63
2023-08-15T08:39:42.593Z,3.85
2023-08-15T08:42:08.079Z,4.75
2023-08-15T08:44:34.176Z,3.60
2023-08-15T08:46:58.802Z,3.67
2023-08-15T08:49:23.107Z,4.90
2023-08-15T08:51:48.173Z,4.47
2023-08-15T08:54:11.819Z,4.95
2023-08-15T08:56:35.956Z,5.55
2023-08-15T08:59:04.549Z,4.10
2023-08-15T09:01:32.332Z,6.57
2023-08-15T09:03:57.460Z,4.75
2023-08-15T09:06:21.315Z,3.72
2023-08-15T09:08:44.879Z,4.07
2023-08-15T09:11:08.787Z,6.40
2023-08-15T09:13:32.451Z,7.20
2023-08-15T09:15:59.561Z,5.85
2023-08-15T09:18:24.226Z,5.25
2023-08-15T09:20:47.967Z,4.47
2023-08-15T09:23:11.833Z,4.53
2023-08-15T09:25:38.245Z,5.10
2023-08-15T09:28:02.132Z,4.25
2023-08-15T09:30:25.785Z,6.57
2023-08-15T09:32:51.130Z,5.47
2023-08-15T09:35:16.734Z,5.00
2023-08-15T09:37:44.186Z,5.40
2023-08-15T09:40:11.810Z,4.82
2023-08-15T09:42:35.471Z,4.82
2023-08-15T09:44:59.496Z,5.35
2023-08-15T09:47:24.169Z,6.20
2023-08-15T09:49:53.489Z,5.57
2023-08-15T09:52:18.094Z,4.43
2023-08-15T09:54:43.884Z,4.22
2023-08-15T09:57:07.658Z,5.75
2023-08-15T09:59:31.687Z,7.00
2023-08-15T10:01:56.303Z,6.57
2023-08-15T10:04:22.614Z,6.57
2023-08-15T10:06:48.303Z,7.93
2023-08-15T10:09:13.712Z,6.35
2023-08-15T10:11:42.498Z,6.15
2023-08-15T10:14:06.639Z,6.63
2023-08-15T10:16:30.678Z,5.75
2023-08-15T10:18:56.584Z,5.18
2023-08-15T10:21:20.257Z,5.45
2023-08-15T10:23:45.327Z,6.35
2023-08-15T10:26:09.317Z,6.13
2023-08-15T10:28:36.497Z,6.15
2023-08-15T10:31:00.146Z,7.32
2023-08-15T10:33:26.380Z,5.80
2023-08-15T10:35:53.236Z,6.10
2023-08-15T10:38:18.345Z,6.70
2023-08-15T10:40:46.004Z,7.30
2023-08-15T10:43:12.306Z,5.63
2023-08-15T10:45:38.971Z,8.13
2023-08-15T10:48:05.000Z,6.53
2023-08-15T10:50:29.955Z,8.15
2023-08-15T10:53:00.061Z,5.68
2023-08-15T10:55:28.916Z,6.00
2023-08-15T10:57:54.623Z,7.90
2023-08-15T11:00:20.226Z,8.38
2023-08-15T11:02:43.915Z,7.75
2023-08-15T11:05:08.703Z,6.85
2023-08-15T11:07:32.470Z,6.70
2023-08-15T11:09:56.084Z,6.53
2023-08-15T11:12:20.163Z,5.80
2023-08-15T11:14:45.227Z,7.20
2023-08-15T11:17:09.107Z,6.90
2023-08-15T11:19:35.326Z,5.90
2023-08-15T11:22:00.100Z,7.43
2023-08-15T11:24:24.424Z,5.53
2023-08-15T11:26:49.172Z,4.63
2023-08-15T11:29:14.246Z,7.22
2023-08-15T11:31:40.753Z,6.82
2023-08-15T11:34:05.285Z,4.15
2023-08-15T11:36:28.981Z,4.40
2023-08-15T11:38:53.120Z,5.20
2023-08-15T11:41:16.922Z,5.05
2023-08-15T11:43:40.989Z,5.93
2023-08-15T11:46:05.160Z,5.75
2023-08-15T11:48:31.353Z,4.88
2023-08-15T11:50:55.042Z,6.47
2023-08-15T11:53:20.474Z,4.70
2023-08-15T11:55:45.959Z,7.47
2023-08-15T11:58:25.156Z,5.70
2023-08-15T12:00:48.875Z,5.25
2023-08-15T12:03:12.852Z,5.07
2023-08-15T12:05:37.980Z,4.78
2023-08-15T12:08:01.600Z,5.68
2023-08-15T12:10:26.163Z,5.72
2023-08-15T12:12:50.019Z,6.00
2023-08-15T12:15:15.703Z,5.40
2023-08-15T12:17:40.490Z,4.20
2023-08-15T12:20:06.203Z,4.85
2023-08-15T12:22:31.428Z,3.95
2023-08-15T12:24:55.118Z,3.88
2023-08-15T12:27:19.580Z,4.57
2023-08-15T12:29:44.719Z,4.25
2023-08-15T12:32:27.552Z,5.25
2023-08-15T12:34:51.254Z,4.28
2023-08-15T12:37:14.920Z,4.15
2023-08-15T12:39:39.947Z,5.22
2023-08-15T12:42:04.306Z,4.05
2023-08-15T12:44:28.205Z,6.00
2023-08-15T12:46:53.686Z,4.93
2023-08-15T12:49:17.331Z,5.82
2023-08-15T12:51:42.058Z,5.10
2023-08-15T12:54:06.444Z,4.35
2023-08-15T12:56:31.541Z,5.45
2023-08-15T12:58:55.153Z,4.07
2023-08-15T13:01:18.867Z,5.43
2023-08-15T13:03:42.531Z,5.38
2023-08-15T13:06:06.236Z,3.88
2023-08-15T13:08:29.869Z,4.10
2023-08-15T13:10:53.570Z,6.13
2023-08-15T13:13:18.585Z,7.28
2023-08-15T13:15:42.264Z,4.47
2023-08-15T13:18:07.111Z,5.78
2023-08-15T13:20:30.939Z,5.93
2023-08-15T13:22:54.782Z,5.72
2023-08-15T13:25:18.652Z,5.00
2023-08-15T13:27:42.327Z,5.55
2023-08-15T13:30:09.569Z,4.65
2023-08-15T13:32:35.237Z,4.80
2023-08-15T13:34:59.031Z,4.03
2023-08-15T13:37:22.643Z,10.00
2023-08-15T13:39:46.295Z,4.88
2023-08-15T13:42:14.838Z,4.35
2023-08-15T13:44:47.225Z,3.85
2023-08-15T13:47:12.210Z,7.38
2023-08-15T13:49:35.853Z,6.22
2023-08-15T13:51:59.474Z,5.68
2023-08-15T13:54:24.076Z,5.03
2023-08-15T13:56:47.720Z,9.75
2023-08-15T13:59:11.425Z,21.13
2023-08-15T14:01:35.034Z,10.23
2023-08-15T14:04:00.152Z,4.50
2023-08-15T14:06:23.891Z,3.78
2023-08-15T14:08:47.606Z,5.68
2023-08-15T14:11:11.280Z,3.00
2023-08-15T14:13:35.624Z,4.18
2023-08-15T14:15:59.253Z,3.38
2023-08-15T14:18:22.967Z,2.95
2023-08-15T14:20:47.977Z,3.72
2023-08-15T14:23:11.716Z,4.72
2023-08-15T14:25:35.755Z,4.60
2023-08-15T14:27:59.997Z,4.07
2023-08-15T14:30:23.837Z,4.35
2023-08-15T14:32:47.668Z,5.47
2023-08-15T14:35:11.392Z,6.65
2023-08-15T14:37:37.156Z,4.45
2023-08-15T14:40:00.883Z,5.00
2023-08-15T14:42:24.812Z,8.85
2023-08-15T14:44:48.509Z,10.15
2023-08-15T14:47:12.309Z,6.38
2023-08-15T14:49:35.891Z,3.85
2023-08-15T14:51:59.569Z,3.65
2023-08-15T14:54:24.635Z,2.90
2023-08-15T14:56:48.379Z,3.00
2023-08-15T14:59:11.987Z,4.20
2023-08-15T15:01:35.843Z,3.95
2023-08-15T15:03:59.628Z,4.38
2023-08-15T15:06:23.440Z,4.88
2023-08-15T15:08:47.086Z,3.33
2023-08-15T15:11:12.178Z,5.40
2023-08-15T15:13:35.803Z,7.28
2023-08-15T15:16:00.845Z,5.57
2023-08-15T15:18:24.590Z,9.88
2023-08-15T15:20:48.582Z,8.90
2023-08-15T15:23:12.241Z,4.53
2023-08-15T15:25:36.005Z,6.57
2023-08-15T15:28:01.051Z,8.38
2023-08-15T15:30:24.963Z,3.28
2023-08-15T15:32:48.589Z,6.50
2023-08-15T15:35:13.606Z,8.68
2023-08-15T15:37:37.279Z,8.02
2023-08-15T15:40:02.659Z,8.80
2023-08-15T15:42:26.272Z,9.32
2023-08-15T15:44:51.442Z,11.60
2023-08-15T15:47:15.313Z,8.23
2023-08-15T15:49:39.237Z,9.05
2023-08-15T15:52:02.928Z,6.90
2023-08-15T15:54:26.707Z,8.57
2023-08-15T15:56:50.294Z,8.05
2023-08-15T15:59:14.109Z,7.05
2023-08-15T16:01:39.615Z,14.32
2023-08-15T16:04:03.805Z,13.25
2023-08-15T16:06:28.475Z,13.02
2023-08-15T16:08:52.286Z,26.42
2023-08-15T16:11:15.988Z,16.10
2023-08-15T16:13:39.859Z,19.58
2023-08-15T16:16:03.750Z,20.58
2023-08-15T16:18:28.967Z,13.88
2023-08-15T16:20:52.975Z,14.98
2023-08-15T16:23:17.279Z,10.32
2023-08-15T16:25:40.835Z,17.35
2023-08-15T16:28:04.871Z,27.75
2023-08-15T16:30:29.123Z,19.85
2023-08-15T16:32:54.848Z,21.30
2023-08-15T16:35:20.126Z,31.15
2023-08-15T16:37:46.360Z,17.55
2023-08-15T16:40:11.238Z,13.57
2023-08-15T16:42:34.931Z,18.20
2023-08-15T16:44:58.623Z,12.27
2023-08-15T16:47:23.568Z,22.35
2023-08-15T16:49:47.243Z,13.52
2023-08-15T16:52:12.392Z,22.15
2023-08-15T16:54:36.049Z,13.45
2023-08-15T16:56:59.763Z,12.80
2023-08-15T16:59:23.420Z,15.02
2023-08-15T17:01:47.242Z,9.75
2023-08-15T17:04:11.197Z,10.02
2023-08-15T17:06:35.072Z,9.25
2023-08-15T17:09:00.146Z,5.10
2023-08-15T17:11:23.921Z,10.25
2023-08-15T17:13:48.082Z,7.97
2023-08-15T17:16:11.752Z,6.75
2023-08-15T17:18:35.371Z,4.53
2023-08-15T17:20:59.058Z,5.30
2023-08-15T17:23:22.655Z,5.05
2023-08-15T17:25:49.225Z,5.10
2023-08-15T17:28:13.860Z,5.45
2023-08-15T17:30:37.516Z,5.30
2023-08-15T17:33:01.220Z,5.35
2023-08-15T17:35:25.058Z,5.00
2023-08-15T17:37:48.993Z,5.50
2023-08-15T17:40:14.156Z,4.75
2023-08-15T17:42:39.142Z,3.30
2023-08-15T17:45:02.866Z,4.10
2023-08-15T17:47:26.501Z,6.13
2023-08-15T17:49:50.851Z,4.63
2023-08-15T17:52:14.465Z,9.82
2023-08-15T17:54:38.259Z,5.30
2023-08-15T17:57:01.884Z,5.07
2023-08-15T17:59:26.955Z,4.65
2023-08-15T18:01:50.518Z,4.72
2023-08-15T18:04:14.206Z,4.35
2023-08-15T18:06:38.569Z,4.22
2023-08-15T18:09:02.863Z,3.35
2023-08-15T18:11:26.599Z,3.53
2023-08-15T18:13:50.291Z,5.68
2023-08-15T18:16:15.459Z,3.08
2023-08-15T18:18:39.588Z,5.15
2023-08-15T18:21:03.966Z,3.83
2023-08-15T18:23:27.658Z,3.55
2023-08-15T18:25:51.324Z,3.72
2023-08-15T18:28:15.031Z,3.20
2023-08-15T18:30:38.651Z,5.03
2023-08-15T18:33:03.800Z,3.92
2023-08-15T18:35:27.405Z,3.58
2023-08-15T18:37:51.047Z,3.88
2023-08-15T18:40:17.238Z,4.50
2023-08-15T18:42:40.918Z,3.17
2023-08-15T18:45:05.577Z,5.38
2023-08-15T18:47:29.405Z,3.70
2023-08-15T18:49:54.420Z,3.40
2023-08-15T18:52:18.082Z,6.22
2023-08-15T18:54:41.718Z,3.58
2023-08-15T18:57:05.921Z,4.45
2023-08-15T18:59:29.515Z,6.72
2023-08-15T19:01:53.261Z,4.22
2023-08-15T19:04:16.918Z,4.68
2023-08-15T19:06:41.913Z,3.42
2023-08-15T19:09:06.208Z,3.90
2023-08-15T19:11:29.883Z,5.72
2023-08-15T19:13:53.522Z,4.20
2023-08-15T19:16:17.342Z,3.40
2023-08-15T19:18:41.179Z,5.72
2023-08-15T19:21:04.902Z,4.55
2023-08-15T19:23:29.983Z,4.80
2023-08-15T19:25:53.709Z,5.75
2023-08-15T19:28:17.630Z,7.43
2023-08-15T19:30:42.880Z,5.97
2023-08-15T19:33:07.080Z,6.72
2023-08-15T19:35:30.914Z,5.90
2023-08-15T19:37:54.734Z,6.07
2023-08-15T19:40:19.986Z,5.63
2023-08-15T19:42:45.772Z,8.63
2023-08-15T19:45:11.535Z,5.15
2023-08-15T19:47:35.455Z,7.22
2023-08-15T19:49:59.290Z,3.92
2023-08-15T19:52:23.232Z,4.60
2023-08-15T19:54:47.146Z,3.33
2023-08-15T19:57:12.193Z,2.90
2023-08-15T19:59:36.189Z,4.90
2023-08-15T20:01:59.835Z,4.32
2023-08-15T20:04:24.827Z,5.38
2023-08-15T20:06:48.490Z,2.80
2023-08-15T20:09:13.096Z,2.83
2023-08-15T20:11:36.815Z,4.40
2023-08-15T20:14:01.963Z,2.88
2023-08-15T20:16:26.595Z,3.08
2023-08-15T20:18:50.282Z,2.30
2023-08-15T20:21:14.345Z,3.03
2023-08-15T20:23:38.111Z,2.78
2023-08-15T20:26:02.734Z,3.40
2023-08-15T20:28:26.594Z,5.13
2023-08-15T20:30:51.687Z,4.20
2023-08-15T20:33:15.739Z,2.92
2023-08-15T20:35:39.533Z,6.25
2023-08-15T20:38:03.311Z,3.00
2023-08-15T20:40:26.925Z,3.17
2023-08-15T20:42:50.609Z,4.07
2023-08-15T20:45:15.010Z,3.05
2023-08-15T20:47:40.589Z,5.07
2023-08-15T20:50:04.526Z,3.53
2023-08-15T20:52:28.231Z,4.75
2023-08-15T20:54:51.836Z,4.82
2023-08-15T20:57:15.534Z,6.15
2023-08-15T20:59:39.219Z,5.57
2023-08-15T21:02:03.141Z,10.43
2023-08-15T21:04:28.480Z,13.13
2023-08-15T21:06:53.494Z,14.95
2023-08-15T21:09:17.198Z,7.15
2023-08-15T21:11:41.112Z,4.55
2023-08-15T21:14:04.866Z,6.25
2023-08-15T21:16:28.600Z,11.15
2023-08-15T21:18:52.364Z,7.88
2023-08-15T21:21:17.417Z,7.38
2023-08-15T21:23:41.050Z,9.18
2023-08-15T21:26:04.832Z,7.82
2023-08-15T21:28:28.554Z,20.95
2023-08-15T21:30:56.431Z,15.77
2023-08-15T21:33:21.545Z,8.02
2023-08-15T21:35:45.229Z,9.43
2023-08-15T21:38:10.286Z,6.57
2023-08-15T21:40:35.209Z,5.30
2023-08-15T21:42:58.812Z,6.10
2023-08-15T21:45:22.457Z,6.55
2023-08-15T21:47:46.149Z,6.65
2023-08-15T21:50:11.123Z,10.60
2023-08-15T21:52:34.751Z,5.97
2023-08-15T21:54:59.814Z,6.22
2023-08-15T21:57:23.958Z,5.07
2023-08-15T21:59:48.136Z,4.60
2023-08-15T22:02:11.802Z,4.93
2023-08-15T22:04:35.649Z,6.50
2023-08-15T22:06:59.271Z,6.10
2023-08-15T22:09:23.229Z,4.85
2023-08-15T22:11:48.334Z,5.75
2023-08-15T22:14:12.034Z,4.70
2023-08-15T22:16:35.857Z,6.18
2023-08-15T22:18:59.621Z,5.82
2023-08-15T22:21:23.333Z,5.63
2023-08-15T22:23:47.100Z,6.03
2023-08-15T22:26:13.429Z,5.82
2023-08-15T22:28:38.451Z,6.40
2023-08-15T22:31:02.110Z,5.20
2023-08-15T22:33:25.808Z,4.80
2023-08-15T22:35:49.410Z,5.38
2023-08-15T22:38:13.209Z,5.00
2023-08-15T22:40:36.901Z,6.78
2023-08-15T22:43:00.761Z,6.88
2023-08-15T22:45:26.267Z,5.43
2023-08-15T22:47:50.026Z,4.95
2023-08-15T22:50:13.640Z,5.78
2023-08-15T22:52:37.311Z,4.82
2023-08-15T22:55:00.969Z,6.57
2023-08-15T22:57:24.980Z,5.40
2023-08-15T22:59:48.885Z,5.57
2023-08-15T23:02:14.040Z,4.97
2023-08-15T23:04:37.773Z,5.72
2023-08-15T23:07:01.637Z,6.22
2023-08-15T23:09:25.334Z,5.57
2023-08-15T23:11:49.314Z,6.85
2023-08-15T23:14:12.985Z,5.72
2023-08-15T23:16:36.666Z,6.15
2023-08-15T23:19:01.684Z,6.20
2023-08-15T23:21:25.513Z,6.97
2023-08-15T23:23:49.101Z,5.55
2023-08-15T23:26:12.760Z,5.60
2023-08-15T23:28:36.438Z,6.07
2023-08-15T23:31:00.196Z,5.72
2023-08-15T23:33:24.476Z,7.13
2023-08-15T23:35:49.583Z,6.93
2023-08-15T23:38:13.168Z,8.52
2023-08-15T23:40:38.017Z,7.72
2023-08-15T23:43:01.641Z,4.72
2023-08-15T23:45:25.325Z,4.88
2023-08-15T23:47:49.044Z,6.72
2023-08-15T23:50:13.406Z,5.93
2023-08-15T23:52:38.559Z,5.55
2023-08-15T23:55:02.296Z,7.38
2023-08-15T23:57:26.698Z,5.95
2023-08-15T23:59:50.644Z,8.02
